This is the latest recevied weather packets stored in our database for station/object MM0ZFG-5. If no packets are shown the sender has not sent any weather packets the latest 10 day(s).
| Time | Temp. | Humidity | Pressure | Rain* | Wind** | Luminosity | Snow |
|---|---|---|---|---|---|---|---|
| 1777671904 | 10.56° C | 90% | 1012.6 hPa | 0 mm | - | - | - |
| 1777664704 | 11.67° C | 84% | 1013 hPa | 0 mm | - | - | - |
| 1777660564 | 12.78° C | 77% | 1012.9 hPa | 0 mm | - | - | - |
| 1777660024 | 12.78° C | 74% | 1012.7 hPa | 0 mm | - | - | - |
| 1777657505 | 13.89° C | 69% | 1012.9 hPa | 0 mm | - | - | - |
| 1777655883 | 14.44° C | 68% | 1012.8 hPa | 0 mm | - | - | - |
| 1777653903 | 14.44° C | 66% | 1013.1 hPa | 0 mm | - | - | - |
| 1777649763 | 15.56° C | 60% | 1013.4 hPa | 0 mm | - | - | - |
| 1777647604 | 15° C | 65% | 1013.7 hPa | 0 mm | - | - | - |
| 1777645084 | 15.56° C | 62% | 1013.9 hPa | 0 mm | - | - | - |
| 1777643665 | 15.56° C | 61% | 1014.2 hPa | 0 mm | - | - | - |
| 1777642024 | 16.67° C | 58% | 1014.2 hPa | 0 mm | - | - | - |
| 1777636804 | 14.44° C | 63% | 1015.1 hPa | 0 mm | - | - | - |
| 1777634284 | 13.89° C | 67% | 1015.4 hPa | 0 mm | - | - | - |
| 1777629604 | 12.78° C | 74% | 1016 hPa | 0 mm | - | - | - |
| 1777627084 | 10° C | 77% | 1016.2 hPa | 0 mm | - | - | - |
| 1777626004 | 10.56° C | 76% | 1016.1 hPa | 0 mm | - | - | - |
| 1777622405 | 8.89° C | 78% | 1016.3 hPa | 0 mm | - | - | - |
| 1777618805 | 8.33° C | 80% | 1016.3 hPa | 0 mm | - | - | - |
| 1777615745 | 8.33° C | 80% | 1016.4 hPa | 0 mm | - | - | - |
| 1777614305 | 7.22° C | 80% | 1016.5 hPa | 0 mm | - | - | - |
| 1777613763 | 7.78° C | 80% | 1016.6 hPa | 0 mm | - | - | - |
| 1777609084 | 7.78° C | 81% | 1016.5 hPa | 0 mm | - | - | - |
| 1777607103 | 7.78° C | 81% | 1016.7 hPa | 0 mm | - | - | - |
| 1777605484 | 7.22° C | 81% | 1016.8 hPa | 0 mm | - | - | - |
* Rain latest hour (hover to see other rain measurements)
** Current wind speed in m/s (hover to see current wind gust speed)